Time;durP1;ratioP1;P1;durP2;ratioP2;P2;SDS_P1;SDS_P2;PMS_P1;PMS_P2;Temp;Humidity;BMP_temperature;BMP_pressure;BME280_temperature;BME280_humidity;BME280_pressure;Samples;Min_cycle;Max_cycle;Signal;HPM_P1;HPM_P2
2023/02/13 00:00:14;;;;;;;23.15;16.75;;;7.50;99.90;;;;;;5073027;28;20377;-61
2023/02/13 00:02:40;;;;;;;23.02;16.17;;;7.50;99.90;;;;;;5072658;28;20441;-61
2023/02/13 00:05:06;;;;;;;22.02;16.73;;;7.50;99.90;;;;;;5072505;28;20033;-61
2023/02/13 00:07:32;;;;;;;25.92;17.55;;;7.50;99.90;;;;;;5072904;28;20139;-61
2023/02/13 00:09:57;;;;;;;26.48;17.65;;;7.40;99.90;;;;;;5072900;28;20526;-61
2023/02/13 00:12:23;;;;;;;23.33;17.52;;;7.40;99.90;;;;;;5057783;28;20137;-60
2023/02/13 00:14:49;;;;;;;26.52;17.83;;;7.50;99.90;;;;;;5052208;28;20037;-61
2023/02/13 00:17:14;;;;;;;23.00;16.80;;;7.50;99.90;;;;;;5052687;28;20475;-61
2023/02/13 00:19:40;;;;;;;27.88;18.70;;;7.60;99.90;;;;;;5052278;28;20048;-61
2023/02/13 00:22:05;;;;;;;32.58;19.90;;;7.50;99.90;;;;;;5052317;28;20041;-61
2023/02/13 00:24:31;;;;;;;32.28;20.20;;;7.60;99.90;;;;;;5052424;28;20036;-61
2023/02/13 00:26:57;;;;;;;30.83;20.65;;;7.50;99.90;;;;;;5052273;28;20044;-61
2023/02/13 00:29:22;;;;;;;29.35;20.15;;;7.40;99.90;;;;;;5052341;28;20372;-61
2023/02/13 00:31:48;;;;;;;30.63;21.45;;;7.40;99.90;;;;;;5052063;28;20045;-61
2023/02/13 00:34:14;;;;;;;28.60;19.08;;;7.40;99.90;;;;;;5063270;28;20048;-61
2023/02/13 00:36:39;;;;;;;32.55;20.50;;;7.40;99.90;;;;;;5055070;28;20045;-61
2023/02/13 00:39:05;;;;;;;31.60;19.98;;;7.40;99.90;;;;;;5052112;28;20071;-62
2023/02/13 00:41:31;;;;;;;29.92;18.55;;;7.40;99.90;;;;;;5051999;28;20098;-60
2023/02/13 00:43:56;;;;;;;29.67;20.20;;;7.50;99.90;;;;;;5052233;28;20130;-61
2023/02/13 00:46:22;;;;;;;31.17;20.38;;;7.50;99.90;;;;;;5056811;28;20043;-61
2023/02/13 00:48:48;;;;;;;30.98;19.65;;;7.50;99.90;;;;;;5071963;28;20481;-61
2023/02/13 00:51:14;;;;;;;27.17;19.45;;;7.40;99.90;;;;;;5069511;28;20119;-61
2023/02/13 00:53:39;;;;;;;28.83;20.77;;;7.50;99.90;;;;;;5060746;28;20035;-60
2023/02/13 00:56:06;;;;;;;28.05;18.88;;;7.40;99.90;;;;;;5071049;28;20170;-61
2023/02/13 00:58:32;;;;;;;33.10;19.25;;;7.40;99.90;;;;;;5071877;28;20040;-60
2023/02/13 01:00:58;;;;;;;33.97;20.70;;;7.30;99.90;;;;;;5072222;28;20052;-61
2023/02/13 01:03:24;;;;;;;27.55;18.48;;;7.30;99.90;;;;;;5075395;28;20064;-61
2023/02/13 01:05:51;;;;;;;28.75;19.40;;;7.30;99.90;;;;;;5078764;28;20036;-61
2023/02/13 01:08:17;;;;;;;27.08;19.65;;;7.40;99.90;;;;;;5078516;28;20040;-61
2023/02/13 01:10:46;;;;;;;30.85;18.85;;;7.30;99.90;;;;;;5078517;28;20135;-61
2023/02/13 01:13:13;;;;;;;26.60;18.52;;;7.30;99.90;;;;;;5044451;28;20119;-61
2023/02/13 01:15:39;;;;;;;30.50;19.55;;;7.40;99.90;;;;;;5058379;28;20475;-61
2023/02/13 01:18:05;;;;;;;32.78;21.25;;;7.30;99.90;;;;;;5058715;28;20036;-61
2023/02/13 01:20:31;;;;;;;30.77;19.83;;;7.30;99.90;;;;;;5058733;28;20051;-61
2023/02/13 01:22:57;;;;;;;29.77;20.33;;;7.20;99.90;;;;;;5058453;28;20111;-61
2023/02/13 01:25:23;;;;;;;27.50;19.88;;;7.30;99.90;;;;;;5058492;28;20033;-61
2023/02/13 01:27:49;;;;;;;31.30;20.98;;;7.20;99.90;;;;;;5058225;28;20045;-61
2023/02/13 01:30:17;;;;;;;31.70;21.38;;;7.30;99.90;;;;;;5058248;28;20090;-61
2023/02/13 01:32:44;;;;;;;26.55;19.20;;;7.20;99.90;;;;;;5058449;28;20079;-61
2023/02/13 01:35:12;;;;;;;27.35;19.35;;;7.30;99.90;;;;;;5058206;28;20403;-61
2023/02/13 01:37:38;;;;;;;27.80;19.15;;;7.30;99.90;;;;;;5057195;28;20518;-61
2023/02/13 01:40:05;;;;;;;29.30;19.23;;;7.30;99.90;;;;;;5058046;28;20112;-61
2023/02/13 01:42:33;;;;;;;28.95;18.60;;;7.20;99.90;;;;;;5057915;28;20031;-61
2023/02/13 01:45:01;;;;;;;27.02;19.60;;;7.30;99.90;;;;;;5059167;28;20048;-61
2023/02/13 01:47:27;;;;;;;25.88;18.77;;;7.20;99.90;;;;;;5078573;28;20036;-60
2023/02/13 01:50:18;;;;;;;26.75;19.00;;;7.30;99.90;;;;;;5077913;28;20051;-61
2023/02/13 01:52:49;;;;;;;26.65;18.80;;;7.30;99.90;;;;;;5035895;28;20196;-61
2023/02/13 01:55:16;;;;;;;26.45;18.33;;;7.30;99.90;;;;;;5035905;28;20064;-61
2023/02/13 01:57:48;;;;;;;27.15;18.63;;;7.30;99.90;;;;;;5035735;28;20084;-61
2023/02/13 02:00:16;;;;;;;27.38;18.60;;;7.40;99.90;;;;;;5035854;28;20041;-61
2023/02/13 02:02:47;;;;;;;28.55;18.15;;;7.30;99.90;;;;;;5035705;28;20049;-61
2023/02/13 02:05:14;;;;;;;27.90;18.58;;;7.40;99.90;;;;;;5035846;28;20040;-60
2023/02/13 02:07:40;;;;;;;27.60;18.67;;;7.30;99.90;;;;;;5035543;28;20116;-61
2023/02/13 02:10:12;;;;;;;23.55;17.35;;;7.20;99.90;;;;;;5035753;28;20060;-61
2023/02/13 02:12:56;;;;;;;24.45;17.70;;;7.30;99.90;;;;;;5020343;28;20080;-61
2023/02/13 02:15:21;;;;;;;24.85;17.77;;;7.30;99.90;;;;;;5012568;28;20041;-60
2023/02/13 02:17:47;;;;;;;24.90;17.75;;;7.20;99.90;;;;;;5012842;28;20134;-61
2023/02/13 02:20:30;;;;;;;25.85;18.58;;;7.20;99.90;;;;;;5012696;28;20096;-61
2023/02/13 02:23:17;;;;;;;23.80;17.95;;;7.20;99.90;;;;;;5012531;28;20531;-60
2023/02/13 02:26:07;;;;;;;25.13;18.23;;;7.20;99.90;;;;;;5012845;28;20173;-61
2023/02/13 02:29:17;;;;;;;24.95;17.83;;;7.20;99.90;;;;;;4999442;28;20066;-61
2023/02/13 02:31:48;;;;;;;24.65;17.20;;;7.20;99.90;;;;;;5010850;28;20046;-60
2023/02/13 02:34:51;;;;;;;24.85;17.92;;;7.20;99.90;;;;;;5012454;28;20065;-61
2023/02/13 02:37:47;;;;;;;29.15;18.20;;;7.20;99.90;;;;;;5012509;28;20560;-60
2023/02/13 02:40:25;;;;;;;27.10;18.30;;;7.20;99.90;;;;;;5012181;28;20041;-61
2023/02/13 02:43:12;;;;;;;22.70;17.65;;;7.10;99.90;;;;;;5012511;28;20046;-61
2023/02/13 02:45:44;;;;;;;25.13;17.65;;;7.10;99.90;;;;;;5026809;28;20072;-61
2023/02/13 02:51:34;;;;;;;25.48;17.40;;;7.10;99.90;;;;;;4953620;29;20047;-60
2023/02/13 02:57:10;;;;;;;26.55;18.60;;;7.10;99.90;;;;;;4953583;29;20379;-61
2023/02/13 03:06:09;;;;;;;24.90;16.73;;;7.10;99.90;;;;;;4954031;29;20355;-61
2023/02/13 03:08:06;;;;;;;24.40;17.20;;;7.20;99.90;;;;;;4978972;28;20041;-61
2023/02/13 03:13:52;;;;;;;25.75;17.20;;;7.20;99.90;;;;;;4979553;28;20046;-61
2023/02/13 03:22:30;;;;;;;23.20;17.50;;;7.10;99.90;;;;;;4953144;28;20043;-60
2023/02/13 03:25:32;;;;;;;26.10;18.52;;;7.10;99.90;;;;;;4953220;28;20039;-60
2023/02/13 03:31:27;;;;;;;26.45;18.25;;;7.10;99.90;;;;;;4991834;28;20085;-61
2023/02/13 03:33:58;;;;;;;23.08;16.25;;;7.10;99.90;;;;;;4991921;28;20410;-60
2023/02/13 03:39:36;;;;;;;28.65;17.67;;;7.10;99.90;;;;;;4952716;28;20054;-61
2023/02/13 03:42:09;;;;;;;25.92;17.50;;;7.10;99.90;;;;;;4962275;28;20047;-61
2023/02/13 03:45:51;;;;;;;25.70;17.00;;;7.10;99.90;;;;;;4971718;28;20055;-61
2023/02/13 03:47:33;;;;;;;25.42;17.63;;;7.10;99.90;;;;;;4956187;28;20129;-60
2023/02/13 03:50:06;;;;;;;23.75;16.70;;;7.10;99.90;;;;;;4941820;29;20055;-61
2023/02/13 03:52:33;;;;;;;26.88;18.02;;;7.10;99.90;;;;;;4974205;28;20065;-60
2023/02/13 04:00:42;;;;;;;24.08;16.92;;;7.10;99.90;;;;;;4991048;28;20042;-60
2023/02/13 04:03:25;;;;;;;23.58;16.42;;;7.10;99.90;;;;;;4991133;28;20080;-61
2023/02/13 04:06:05;;;;;;;25.00;17.95;;;7.10;99.90;;;;;;4991385;28;20046;-61
2023/02/13 04:08:31;;;;;;;24.30;17.45;;;7.10;99.90;;;;;;4978084;28;20086;-62
2023/02/13 04:11:15;;;;;;;26.45;17.60;;;7.10;99.90;;;;;;4991009;28;20478;-61
2023/02/13 04:13:49;;;;;;;25.00;17.83;;;7.00;99.90;;;;;;4963951;28;20489;-61
2023/02/13 04:16:37;;;;;;;25.00;16.65;;;7.10;99.90;;;;;;5051046;28;20041;-61
2023/02/13 04:19:04;;;;;;;25.80;17.08;;;7.00;99.90;;;;;;5052718;28;20053;-60
2023/02/13 04:21:34;;;;;;;28.42;17.95;;;7.00;99.90;;;;;;5066444;28;20098;-61
2023/02/13 04:24:00;;;;;;;26.35;17.38;;;7.00;99.90;;;;;;5051321;28;20053;-60
2023/02/13 04:26:32;;;;;;;23.38;16.92;;;7.00;99.90;;;;;;5052230;28;20124;-61
2023/02/13 04:28:58;;;;;;;27.02;17.90;;;7.10;99.90;;;;;;5052084;28;20048;-61
2023/02/13 04:31:23;;;;;;;25.08;18.05;;;7.00;99.90;;;;;;5052505;28;20044;-60
2023/02/13 04:33:49;;;;;;;25.13;18.65;;;7.10;99.90;;;;;;5051977;28;20075;-61
2023/02/13 04:36:15;;;;;;;24.38;17.23;;;7.10;99.90;;;;;;5051239;28;20116;-61
2023/02/13 04:38:40;;;;;;;23.45;17.02;;;7.10;99.90;;;;;;5051516;28;20036;-60
2023/02/13 04:41:06;;;;;;;23.95;16.20;;;7.10;99.90;;;;;;5060683;28;20044;-61
2023/02/13 04:43:32;;;;;;;25.73;17.80;;;7.10;99.90;;;;;;5071935;28;20048;-61
2023/02/13 04:45:57;;;;;;;27.90;18.45;;;7.10;99.90;;;;;;5058334;28;20599;-60
2023/02/13 04:48:23;;;;;;;26.90;18.08;;;7.10;99.90;;;;;;5071841;28;20077;-61
2023/02/13 04:50:48;;;;;;;25.75;17.52;;;7.10;99.90;;;;;;5072139;28;20497;-61
2023/02/13 04:53:14;;;;;;;26.50;17.83;;;7.10;99.90;;;;;;5072191;28;20079;-61
2023/02/13 04:55:40;;;;;;;27.45;18.80;;;7.10;99.90;;;;;;5072167;28;20036;-60
2023/02/13 04:58:05;;;;;;;24.98;18.15;;;7.10;99.90;;;;;;5063952;28;20444;-61
2023/02/13 05:00:31;;;;;;;26.77;18.38;;;7.10;99.90;;;;;;5051675;28;20037;-61
2023/02/13 05:03:08;;;;;;;25.88;17.70;;;7.10;99.90;;;;;;5051516;28;20037;-61
2023/02/13 05:05:34;;;;;;;28.20;17.98;;;7.10;99.90;;;;;;5052036;28;20489;-61
2023/02/13 05:08:00;;;;;;;28.60;19.60;;;7.10;99.90;;;;;;5051775;28;20492;-61
2023/02/13 05:10:26;;;;;;;25.58;16.77;;;7.00;99.90;;;;;;5051767;28;20037;-61
2023/02/13 05:12:52;;;;;;;24.98;17.30;;;7.00;99.90;;;;;;5051773;28;20049;-60
2023/02/13 05:15:18;;;;;;;25.92;18.67;;;7.00;99.90;;;;;;5051606;28;20446;-61
2023/02/13 05:17:45;;;;;;;24.67;17.80;;;7.00;99.90;;;;;;5051657;28;20045;-64
2023/02/13 05:20:11;;;;;;;27.33;17.75;;;7.00;99.90;;;;;;5051278;28;20455;-65
2023/02/13 05:25:26;;;;;;;26.00;18.30;;;7.00;99.90;;;;;;5039397;28;20098;-64
2023/02/13 05:27:52;;;;;;;27.27;17.45;;;7.00;99.90;;;;;;5050065;28;20049;-64
2023/02/13 05:30:17;;;;;;;25.05;17.00;;;7.00;99.90;;;;;;5051343;28;20047;-64
2023/02/13 05:32:43;;;;;;;22.08;16.48;;;7.00;99.90;;;;;;5051322;28;20131;-64
2023/02/13 05:35:09;;;;;;;27.80;17.63;;;7.10;99.90;;;;;;5049974;28;20045;-64
2023/02/13 05:37:35;;;;;;;25.33;17.30;;;7.00;99.90;;;;;;5051158;28;20075;-64
2023/02/13 05:40:01;;;;;;;24.75;18.00;;;7.00;99.90;;;;;;5060905;28;20036;-64
2023/02/13 05:42:27;;;;;;;24.42;17.42;;;7.00;99.90;;;;;;5052750;28;20437;-65
2023/02/13 05:44:52;;;;;;;26.30;17.60;;;7.10;99.90;;;;;;5060218;28;20387;-64
2023/02/13 05:47:18;;;;;;;26.02;17.52;;;7.00;99.90;;;;;;5050022;28;20395;-65
2023/02/13 05:49:43;;;;;;;29.85;19.42;;;7.00;99.90;;;;;;5050513;28;20052;-64
2023/02/13 05:52:09;;;;;;;30.02;18.13;;;7.00;99.90;;;;;;5074887;28;20029;-61
2023/02/13 05:54:37;;;;;;;31.67;17.77;;;7.00;99.90;;;;;;5075102;28;20044;-60
2023/02/13 05:57:03;;;;;;;24.38;17.65;;;7.00;99.90;;;;;;5073515;28;20044;-61
2023/02/13 05:59:28;;;;;;;27.17;18.45;;;7.00;99.90;;;;;;5056602;28;20099;-60
2023/02/13 06:01:54;;;;;;;25.63;17.55;;;7.00;99.90;;;;;;5055175;28;20041;-61
2023/02/13 06:04:20;;;;;;;25.85;18.45;;;7.00;99.90;;;;;;5054936;28;20036;-61
2023/02/13 06:06:45;;;;;;;25.50;18.20;;;7.00;99.90;;;;;;5054841;28;20086;-60
2023/02/13 06:09:11;;;;;;;29.95;18.70;;;7.00;99.90;;;;;;5053750;28;20049;-61
2023/02/13 06:11:37;;;;;;;26.20;18.48;;;7.00;99.90;;;;;;5053456;28;20438;-61
2023/02/13 06:14:02;;;;;;;26.70;18.02;;;7.00;99.90;;;;;;5055029;28;20047;-61
2023/02/13 06:16:30;;;;;;;24.58;16.92;;;7.00;99.90;;;;;;5053660;28;20476;-61
2023/02/13 06:18:56;;;;;;;26.17;17.98;;;7.00;99.90;;;;;;5053527;28;20052;-60
2023/02/13 06:21:21;;;;;;;27.17;18.23;;;7.00;99.90;;;;;;5053023;28;20041;-60
2023/02/13 06:23:47;;;;;;;26.52;18.20;;;6.90;99.90;;;;;;5054677;28;20496;-60
2023/02/13 06:26:13;;;;;;;28.63;18.67;;;7.00;99.90;;;;;;5054254;28;20049;-60
2023/02/13 06:28:39;;;;;;;25.77;18.20;;;7.00;99.90;;;;;;5054439;28;20083;-61
2023/02/13 06:31:04;;;;;;;32.63;18.58;;;6.90;99.90;;;;;;5054463;28;20044;-60
2023/02/13 06:33:30;;;;;;;25.80;18.70;;;7.00;99.90;;;;;;5058801;28;20036;-61
2023/02/13 06:35:56;;;;;;;27.77;19.45;;;7.00;99.90;;;;;;5063880;28;20454;-61
2023/02/13 06:38:23;;;;;;;28.20;19.38;;;6.90;99.90;;;;;;5052880;28;20129;-60
2023/02/13 06:40:49;;;;;;;27.63;18.95;;;6.90;99.90;;;;;;5067510;28;20115;-61
2023/02/13 06:43:16;;;;;;;28.25;19.92;;;7.00;99.90;;;;;;5074123;28;20478;-61
2023/02/13 06:45:42;;;;;;;28.23;19.38;;;7.00;99.90;;;;;;5062579;28;20119;-60
2023/02/13 06:48:08;;;;;;;28.45;19.67;;;7.00;99.90;;;;;;5061684;28;20041;-60
2023/02/13 06:50:34;;;;;;;28.35;18.77;;;7.00;99.90;;;;;;5074489;28;20512;-61
2023/02/13 06:53:00;;;;;;;27.75;18.67;;;7.00;99.90;;;;;;5074128;28;20037;-61
2023/02/13 06:55:26;;;;;;;29.58;18.85;;;7.00;99.90;;;;;;5073887;28;20075;-61
2023/02/13 06:57:52;;;;;;;27.90;19.90;;;7.00;99.90;;;;;;5068979;28;20428;-60
2023/02/13 07:00:18;;;;;;;31.20;19.15;;;7.00;99.90;;;;;;5053460;28;20104;-60
2023/02/13 07:02:45;;;;;;;32.00;19.35;;;7.00;99.90;;;;;;5053828;28;20032;-61
2023/02/13 07:05:11;;;;;;;31.17;20.30;;;7.00;99.90;;;;;;5053822;28;20529;-61
2023/02/13 07:07:39;;;;;;;25.70;17.55;;;7.00;99.90;;;;;;5053665;28;20045;-59
2023/02/13 07:10:08;;;;;;;29.38;18.90;;;7.00;99.90;;;;;;5053701;28;20045;-59
2023/02/13 07:12:35;;;;;;;25.30;17.87;;;7.00;99.90;;;;;;5053050;28;20049;-60
2023/02/13 07:15:01;;;;;;;27.42;17.40;;;7.00;99.90;;;;;;5053147;28;20090;-59
2023/02/13 07:17:27;;;;;;;27.27;18.15;;;6.90;99.90;;;;;;5050483;28;20170;-59
2023/02/13 07:19:53;;;;;;;29.38;18.25;;;7.00;99.90;;;;;;5052276;28;20116;-59
2023/02/13 07:22:19;;;;;;;28.55;18.13;;;7.00;99.90;;;;;;5053176;28;20464;-59
2023/02/13 07:24:44;;;;;;;27.02;18.10;;;7.00;99.90;;;;;;5052952;28;20097;-59
2023/02/13 07:27:10;;;;;;;29.30;18.17;;;7.00;99.90;;;;;;5053146;28;20094;-60
2023/02/13 07:29:35;;;;;;;25.27;17.73;;;7.10;99.90;;;;;;5052969;28;20094;-59
2023/02/13 07:32:01;;;;;;;26.33;17.88;;;7.10;99.90;;;;;;5053160;28;20069;-59
2023/02/13 07:34:27;;;;;;;27.65;18.10;;;7.10;99.90;;;;;;5053146;28;20124;-59
2023/02/13 07:36:52;;;;;;;29.30;18.90;;;7.10;99.90;;;;;;5052687;28;20044;-59
2023/02/13 07:39:18;;;;;;;27.10;18.85;;;7.10;99.90;;;;;;5069470;28;20037;-59
2023/02/13 07:41:44;;;;;;;27.85;18.45;;;7.00;99.90;;;;;;5070451;28;20486;-60
2023/02/13 07:44:10;;;;;;;30.98;19.10;;;7.10;99.90;;;;;;5072818;28;20032;-59
2023/02/13 07:46:35;;;;;;;29.83;17.15;;;7.00;99.90;;;;;;5056542;28;20047;-59
2023/02/13 07:49:01;;;;;;;31.42;19.05;;;7.10;99.90;;;;;;5054551;28;20102;-59
2023/02/13 07:51:27;;;;;;;27.40;17.48;;;7.10;99.90;;;;;;5061113;28;20037;-59
2023/02/13 07:53:54;;;;;;;28.65;18.50;;;7.10;99.90;;;;;;5072455;28;20044;-59
2023/02/13 07:56:20;;;;;;;24.83;18.17;;;7.10;99.90;;;;;;5072632;28;20032;-59
2023/02/13 07:58:45;;;;;;;27.02;18.08;;;7.10;99.90;;;;;;5060055;28;20342;-59
2023/02/13 08:01:14;;;;;;;30.23;18.73;;;7.10;99.90;;;;;;5052313;28;20025;-59
2023/02/13 08:03:40;;;;;;;26.63;17.92;;;7.10;99.90;;;;;;5052525;28;20083;-59
2023/02/13 08:06:06;;;;;;;32.53;17.45;;;7.10;99.90;;;;;;5052738;28;20497;-57
2023/02/13 08:08:32;;;;;;;26.98;17.42;;;7.10;99.90;;;;;;5052541;28;20087;-59
2023/02/13 08:13:49;;;;;;;25.88;17.52;;;7.10;99.90;;;;;;5052017;28;20057;-58
2023/02/13 08:16:15;;;;;;;30.55;18.65;;;7.10;99.90;;;;;;5050920;28;20372;-59
2023/02/13 08:18:40;;;;;;;27.70;18.15;;;7.20;99.90;;;;;;5052300;28;20036;-58
2023/02/13 08:21:06;;;;;;;26.52;17.75;;;7.20;99.90;;;;;;5051379;28;20056;-58
2023/02/13 08:23:32;;;;;;;26.48;18.25;;;7.10;99.90;;;;;;5052402;28;20086;-57
2023/02/13 08:26:01;;;;;;;27.83;18.75;;;7.20;99.90;;;;;;5052315;28;20043;-58
2023/02/13 08:28:30;;;;;;;32.17;18.85;;;7.20;99.90;;;;;;5052232;28;20033;-58
2023/02/13 08:30:55;;;;;;;29.63;19.20;;;7.20;99.90;;;;;;5052614;28;20137;-58
2023/02/13 08:33:21;;;;;;;30.15;18.90;;;7.30;99.90;;;;;;5051998;28;20064;-58
2023/02/13 08:35:47;;;;;;;30.65;20.58;;;7.20;99.90;;;;;;5052364;28;20043;-58
2023/02/13 08:38:12;;;;;;;28.98;19.58;;;7.20;99.90;;;;;;5050395;28;20454;-58
2023/02/13 08:40:39;;;;;;;32.92;19.65;;;7.20;99.90;;;;;;5052295;28;20037;-58
2023/02/13 08:43:06;;;;;;;29.85;19.38;;;7.20;99.90;;;;;;5051941;28;20033;-58
2023/02/13 08:45:32;;;;;;;27.60;18.58;;;7.30;99.90;;;;;;5052231;28;20068;-58
2023/02/13 08:47:58;;;;;;;23.27;16.95;;;7.30;99.90;;;;;;5050695;28;20037;-58
2023/02/13 08:50:26;;;;;;;31.15;18.65;;;7.30;99.90;;;;;;5069931;28;20403;-58
2023/02/13 08:52:52;;;;;;;28.80;17.50;;;7.30;99.90;;;;;;5070782;28;20052;-58
2023/02/13 08:55:17;;;;;;;29.13;17.88;;;7.40;99.90;;;;;;5071992;28;20040;-58
2023/02/13 08:57:43;;;;;;;27.92;17.55;;;7.40;99.90;;;;;;5067852;28;20483;-59
2023/02/13 09:00:09;;;;;;;29.88;18.13;;;7.50;99.90;;;;;;5051705;28;20387;-58
2023/02/13 09:02:35;;;;;;;24.67;15.90;;;7.40;99.90;;;;;;5053613;28;20048;-58
2023/02/13 09:05:01;;;;;;;28.00;15.80;;;7.40;99.90;;;;;;5064111;28;20037;-58
2023/02/13 09:07:26;;;;;;;25.05;16.73;;;7.40;99.90;;;;;;5051815;28;20056;-58
2023/02/13 09:09:52;;;;;;;26.67;16.60;;;7.40;99.90;;;;;;5052087;28;20064;-58
2023/02/13 09:12:18;;;;;;;28.13;17.25;;;7.40;99.90;;;;;;5051671;28;20056;-58
2023/02/13 09:14:43;;;;;;;25.92;16.40;;;7.40;99.90;;;;;;5051436;28;20053;-59
2023/02/13 09:17:09;;;;;;;23.85;15.80;;;7.40;99.90;;;;;;5051478;28;20047;-58
2023/02/13 09:19:34;;;;;;;29.30;16.70;;;7.40;99.90;;;;;;5051496;28;20475;-59
2023/02/13 09:22:00;;;;;;;26.42;16.95;;;7.40;99.90;;;;;;5051537;28;20368;-59
2023/02/13 09:24:26;;;;;;;27.20;16.27;;;7.50;99.90;;;;;;5053726;28;20059;-59
2023/02/13 09:26:51;;;;;;;28.40;18.13;;;7.40;99.90;;;;;;5055597;28;20483;-59
2023/02/13 09:29:17;;;;;;;24.48;16.77;;;7.50;99.90;;;;;;5055437;28;20045;-58
2023/02/13 09:31:43;;;;;;;28.23;17.05;;;7.50;99.90;;;;;;5055159;28;20032;-59
2023/02/13 09:34:08;;;;;;;29.13;16.70;;;7.60;99.90;;;;;;5055455;28;20136;-59
2023/02/13 09:36:35;;;;;;;25.50;17.33;;;7.50;99.90;;;;;;5055286;28;20075;-59
2023/02/13 09:39:01;;;;;;;30.75;17.70;;;7.60;99.90;;;;;;5055120;28;20550;-59
2023/02/13 09:41:33;;;;;;;30.58;18.98;;;7.60;99.90;;;;;;5055256;28;20060;-58
2023/02/13 09:44:32;;;;;;;25.02;17.38;;;7.50;99.90;;;;;;5055515;28;20390;-59
2023/02/13 09:47:01;;;;;;;27.95;17.73;;;7.60;99.90;;;;;;5055299;28;20140;-59
2023/02/13 09:49:31;;;;;;;27.23;17.52;;;7.60;99.90;;;;;;5055157;28;20076;-60
2023/02/13 09:51:57;;;;;;;29.80;18.15;;;7.70;99.90;;;;;;5054790;28;20139;-59
2023/02/13 09:54:25;;;;;;;28.40;16.52;;;7.70;99.90;;;;;;5055205;28;20120;-59
2023/02/13 09:57:14;;;;;;;31.88;18.73;;;7.70;99.90;;;;;;5075329;28;20360;-60
2023/02/13 09:59:57;;;;;;;28.05;17.35;;;7.70;99.90;;;;;;5056332;28;20048;-59
2023/02/13 10:02:37;;;;;;;27.50;18.05;;;7.70;99.90;;;;;;5074835;28;20072;-59
2023/02/13 10:05:18;;;;;;;25.90;17.35;;;7.70;99.90;;;;;;5074648;28;20047;-60
2023/02/13 10:08:06;;;;;;;22.40;15.93;;;7.70;99.90;;;;;;5073655;28;20059;-59
2023/02/13 10:11:19;;;;;;;27.80;18.50;;;7.70;99.90;;;;;;5063579;28;20106;-59
2023/02/13 10:13:53;;;;;;;26.45;16.85;;;7.70;99.90;;;;;;5069592;28;20103;-59
2023/02/13 10:16:39;;;;;;;25.40;17.65;;;7.60;99.90;;;;;;5074848;28;20389;-59
2023/02/13 10:19:31;;;;;;;26.15;17.27;;;7.60;99.90;;;;;;5073838;28;20067;-59
2023/02/13 10:22:11;;;;;;;26.08;17.88;;;7.60;99.90;;;;;;5041941;28;20055;-59
2023/02/13 10:24:50;;;;;;;28.92;16.63;;;7.60;99.90;;;;;;5069655;28;20119;-59
2023/02/13 10:27:20;;;;;;;26.10;18.40;;;7.60;99.90;;;;;;5074524;28;20041;-59
2023/02/13 10:30:04;;;;;;;28.15;18.02;;;7.60;99.90;;;;;;5074499;28;20368;-60
2023/02/13 10:33:09;;;;;;;28.83;17.02;;;7.70;99.90;;;;;;5074411;28;20045;-59
2023/02/13 10:35:37;;;;;;;28.45;17.52;;;7.70;99.90;;;;;;5031301;28;20049;-59
2023/02/13 10:38:14;;;;;;;24.27;16.58;;;7.80;99.90;;;;;;5032319;28;20080;-59
2023/02/13 10:41:06;;;;;;;35.22;18.27;;;7.80;99.90;;;;;;5031888;28;20052;-59
2023/02/13 10:44:00;;;;;;;27.88;17.65;;;7.80;99.90;;;;;;4953572;29;20102;-59
2023/02/13 10:46:44;;;;;;;26.38;17.40;;;7.80;99.90;;;;;;4953351;29;20121;-59
2023/02/13 10:49:26;;;;;;;27.35;17.65;;;7.80;99.90;;;;;;4953696;28;20082;-59
2023/02/13 10:52:03;;;;;;;24.25;16.92;;;7.80;99.90;;;;;;4950019;29;20051;-60
2023/02/13 10:54:46;;;;;;;23.65;16.23;;;7.80;99.90;;;;;;4946968;29;20051;-59
2023/02/13 10:57:22;;;;;;;25.38;16.52;;;7.80;99.90;;;;;;4946275;29;20089;-59
2023/02/13 11:00:20;;;;;;;29.45;17.67;;;7.80;99.90;;;;;;4944182;29;20067;-59
2023/02/13 11:02:46;;;;;;;22.25;15.52;;;7.80;99.90;;;;;;4942176;29;20091;-60
2023/02/13 11:05:22;;;;;;;25.83;17.10;;;7.80;99.90;;;;;;4942285;29;20079;-59
2023/02/13 11:07:48;;;;;;;26.65;16.48;;;7.80;99.90;;;;;;4944263;29;20052;-59
2023/02/13 11:10:24;;;;;;;27.05;16.60;;;7.90;99.90;;;;;;4938474;29;20050;-60
2023/02/13 11:12:51;;;;;;;29.05;18.73;;;7.90;99.90;;;;;;4968405;28;20050;-59
2023/02/13 11:15:19;;;;;;;25.70;16.92;;;7.90;99.90;;;;;;4997228;28;20129;-60
2023/02/13 11:17:45;;;;;;;27.00;17.52;;;7.90;99.90;;;;;;4988917;28;20069;-59
2023/02/13 11:20:39;;;;;;;26.75;17.05;;;7.90;99.90;;;;;;5005133;28;20519;-60
2023/02/13 11:23:16;;;;;;;27.75;17.33;;;7.90;99.90;;;;;;5054231;28;20025;-60
2023/02/13 11:25:55;;;;;;;26.95;18.05;;;7.90;99.90;;;;;;5054544;28;20505;-60
2023/02/13 11:28:21;;;;;;;27.65;18.27;;;7.90;99.90;;;;;;5050268;28;20061;-60
2023/02/13 11:30:47;;;;;;;29.88;18.45;;;7.90;99.90;;;;;;5049087;28;20037;-59
2023/02/13 11:33:16;;;;;;;31.73;19.35;;;7.90;99.90;;;;;;5040562;28;20068;-60
2023/02/13 11:35:42;;;;;;;30.13;18.70;;;7.90;99.90;;;;;;5047820;28;20036;-60
2023/02/13 11:38:17;;;;;;;27.95;19.65;;;8.00;99.90;;;;;;5052429;28;20036;-60
2023/02/13 11:40:46;;;;;;;28.35;19.00;;;8.00;99.90;;;;;;5058893;28;20055;-60
2023/02/13 11:43:28;;;;;;;30.73;19.33;;;8.00;99.90;;;;;;5050098;28;20029;-60
2023/02/13 11:46:12;;;;;;;28.63;18.50;;;8.00;99.90;;;;;;5049431;28;20479;-60
2023/02/13 11:48:37;;;;;;;30.95;19.30;;;8.20;99.90;;;;;;5052987;28;20040;-61
2023/02/13 11:51:03;;;;;;;27.88;18.25;;;8.10;99.90;;;;;;5050932;28;20043;-60
2023/02/13 11:53:36;;;;;;;31.30;19.15;;;8.10;99.90;;;;;;5054588;28;20119;-61
2023/02/13 11:56:07;;;;;;;29.33;18.02;;;8.20;99.90;;;;;;5040109;28;20384;-60
2023/02/13 11:58:33;;;;;;;28.75;18.83;;;8.10;99.90;;;;;;5040974;28;20037;-60
2023/02/13 12:01:19;;;;;;;29.60;18.90;;;8.20;99.90;;;;;;5051632;28;20075;-60
2023/02/13 12:04:00;;;;;;;28.05;18.52;;;8.20;99.90;;;;;;5050240;28;20517;-60
2023/02/13 12:06:25;;;;;;;27.48;18.42;;;8.30;99.90;;;;;;5050309;28;20037;-61
2023/02/13 12:08:51;;;;;;;27.77;19.20;;;8.30;99.90;;;;;;5052230;28;20044;-60
2023/02/13 12:11:41;;;;;;;28.00;18.00;;;8.40;99.90;;;;;;5066983;28;20044;-60
2023/02/13 12:14:11;;;;;;;30.77;18.27;;;8.30;99.90;;;;;;5072165;28;20078;-60
2023/02/13 12:16:44;;;;;;;28.35;18.15;;;8.30;99.90;;;;;;5066995;28;20482;-61
2023/02/13 12:19:19;;;;;;;28.02;18.17;;;8.40;99.90;;;;;;5060406;28;20170;-61
2023/02/13 12:22:13;;;;;;;30.00;18.33;;;8.50;99.90;;;;;;5070910;28;20426;-60
2023/02/13 12:25:16;;;;;;;29.73;17.70;;;8.50;99.90;;;;;;5071931;28;20048;-60
2023/02/13 12:28:06;;;;;;;26.52;18.33;;;8.50;99.90;;;;;;5042008;28;20040;-60
2023/02/13 12:30:40;;;;;;;31.13;18.52;;;8.60;99.90;;;;;;5065858;28;20052;-60
2023/02/13 12:33:15;;;;;;;34.17;19.13;;;8.60;99.90;;;;;;5064436;28;20049;-61
2023/02/13 12:36:09;;;;;;;28.15;17.65;;;8.70;99.90;;;;;;5071830;28;20376;-60
2023/02/13 12:38:40;;;;;;;25.85;17.73;;;8.70;99.90;;;;;;5071528;28;20037;-60
2023/02/13 12:41:23;;;;;;;28.17;17.38;;;8.70;99.90;;;;;;5071496;28;20040;-61
2023/02/13 12:44:01;;;;;;;27.33;18.50;;;8.70;99.90;;;;;;5057536;28;20037;-60
2023/02/13 12:46:45;;;;;;;27.60;17.85;;;8.70;99.90;;;;;;5059552;28;20483;-60
2023/02/13 12:49:32;;;;;;;29.45;19.10;;;8.70;99.90;;;;;;5053527;28;20063;-60
2023/02/13 12:52:28;;;;;;;26.48;17.40;;;8.70;99.90;;;;;;5055585;28;20040;-60
2023/02/13 12:55:02;;;;;;;27.10;17.10;;;8.80;99.90;;;;;;5071632;28;20499;-60
2023/02/13 12:57:59;;;;;;;27.13;17.98;;;8.80;99.90;;;;;;5061622;28;20040;-59
2023/02/13 13:00:58;;;;;;;26.50;17.40;;;8.80;99.90;;;;;;5009234;28;20054;-60
2023/02/13 13:03:48;;;;;;;27.27;17.63;;;8.80;99.90;;;;;;5008983;28;20463;-60
2023/02/13 13:06:34;;;;;;;30.95;17.42;;;8.80;99.90;;;;;;5009214;28;20060;-60
2023/02/13 13:09:35;;;;;;;24.60;17.13;;;8.80;99.90;;;;;;5009530;28;20041;-60
2023/02/13 13:12:22;;;;;;;32.17;18.67;;;8.80;99.90;;;;;;5009186;28;20069;-60
2023/02/13 13:14:59;;;;;;;26.70;17.17;;;8.90;99.90;;;;;;5009354;28;20442;-61
2023/02/13 13:17:31;;;;;;;28.85;17.98;;;8.80;99.90;;;;;;5009052;28;20485;-60
2023/02/13 13:20:36;;;;;;;26.30;17.67;;;8.90;99.90;;;;;;5009165;28;20496;-60
2023/02/13 13:23:19;;;;;;;28.45;17.20;;;8.90;99.90;;;;;;5023144;28;20562;-60
2023/02/13 13:25:54;;;;;;;22.65;16.05;;;8.90;99.90;;;;;;5009361;28;20042;-60
2023/02/13 13:28:23;;;;;;;29.52;17.13;;;8.90;99.90;;;;;;5009304;28;20041;-60
2023/02/13 13:30:49;;;;;;;;;;;9.00;99.90;;;;;;5009867;28;20120;-60
2023/02/13 13:33:21;;;;;;;25.67;17.75;;;9.00;99.90;;;;;;5009247;28;20399;-60
2023/02/13 13:35:54;;;;;;;29.70;17.30;;;9.00;99.90;;;;;;5018435;28;20083;-60
2023/02/13 13:38:38;;;;;;;26.20;17.45;;;9.00;99.90;;;;;;5052088;28;20416;-60